Terminal Aerodrome Forecast
Issued by NWS Jackson, KY

Home | Current Version | Previous Version | Text Only | Print | Product List | Glossary On
Versions: 1 2 3 4 5 6 7 8 9 10 11 12 13 14 15 16 17
000
FTUS43 KJKL 181739
TAFLOZ
TAF
KLOZ 181739Z 1818/1918 VRB06KT P6SM SCT200
     FM190600 17008KT 6SM -SHRA BR OVC040
     FM191000 18009KT 5SM -SHRA BR OVC015
     FM191200 18008KT 5SM -SHRA BR BKN025
     FM191700 20013KT P6SM BKN035=

USA.gov is the U.S. government's official web portal to all federal, state and local government web resources and services.